createdAt,value
2022-08-23T00:01:31.248Z,1.90
2022-08-23T00:04:02.195Z,2.20
2022-08-23T00:06:41.281Z,1.97
2022-08-23T00:09:10.033Z,1.63
2022-08-23T00:11:43.141Z,1.40
2022-08-23T00:14:14.387Z,1.73
2022-08-23T00:16:44.091Z,1.50
2022-08-23T00:19:14.233Z,1.57
2022-08-23T00:21:44.961Z,1.50
2022-08-23T00:24:14.057Z,1.60
2022-08-23T00:27:00.018Z,1.50
2022-08-23T00:29:31.148Z,1.20
2022-08-23T00:32:01.037Z,1.17
2022-08-23T00:34:29.452Z,1.20
2022-08-23T00:37:00.299Z,1.20
2022-08-23T00:39:29.027Z,1.30
2022-08-23T00:42:01.378Z,1.10
2022-08-23T00:45:00.151Z,1.10
2022-08-23T00:47:46.234Z,1.20
2022-08-23T00:50:24.006Z,1.30
2022-08-23T00:53:05.297Z,0.80
2022-08-23T00:55:34.569Z,1.20
2022-08-23T00:58:03.093Z,1.00
2022-08-23T01:00:35.049Z,1.03
2022-08-23T01:03:07.180Z,0.90
2022-08-23T01:05:47.730Z,1.10
2022-08-23T01:08:18.574Z,0.90
2022-08-23T01:10:49.758Z,0.93
2022-08-23T01:13:22.797Z,1.00
2022-08-23T01:15:58.933Z,1.10
2022-08-23T01:18:29.955Z,0.70
2022-08-23T01:21:08.009Z,0.80
2022-08-23T01:23:45.048Z,1.00
2022-08-23T01:26:15.965Z,0.93
2022-08-23T01:28:53.707Z,0.73
2022-08-23T01:31:23.508Z,0.80
2022-08-23T01:33:56.579Z,0.73
2022-08-23T01:36:24.935Z,1.00
2022-08-23T01:38:56.720Z,0.80
2022-08-23T01:41:25.266Z,0.70
2022-08-23T01:43:54.097Z,1.00
2022-08-23T01:46:26.230Z,0.83
2022-08-23T01:48:56.373Z,0.90
2022-08-23T01:51:28.253Z,0.80
2022-08-23T01:53:59.229Z,1.00
2022-08-23T01:56:38.341Z,1.00
2022-08-23T01:59:13.515Z,0.87
2022-08-23T02:01:48.430Z,1.20
2022-08-23T02:04:18.863Z,1.00
2022-08-23T02:06:47.690Z,1.13
2022-08-23T02:09:25.567Z,1.00
2022-08-23T02:11:58.756Z,1.40
2022-08-23T02:14:27.084Z,1.10
2022-08-23T02:17:04.304Z,1.10
2022-08-23T02:19:37.832Z,1.10
2022-08-23T02:22:08.363Z,1.27
2022-08-23T02:24:44.870Z,1.07
2022-08-23T02:27:15.996Z,1.10
2022-08-23T02:29:47.084Z,1.23
2022-08-23T02:32:20.384Z,1.27
2022-08-23T02:34:59.842Z,1.23
2022-08-23T02:37:35.247Z,1.00
2022-08-23T02:40:06.326Z,0.97
2022-08-23T02:42:34.798Z,1.17
2022-08-23T02:45:06.477Z,1.50
2022-08-23T02:47:36.954Z,1.43
2022-08-23T02:50:26.153Z,1.47
2022-08-23T02:52:55.031Z,1.20
2022-08-23T02:55:26.205Z,1.27
2022-08-23T02:57:54.520Z,1.43
2022-08-23T03:00:23.404Z,1.10
2022-08-23T03:02:52.853Z,1.40
2022-08-23T03:05:21.922Z,1.53
2022-08-23T03:07:50.131Z,1.90
2022-08-23T03:10:18.763Z,1.90
2022-08-23T03:12:54.859Z,1.80
2022-08-23T03:15:24.110Z,1.83
2022-08-23T03:17:53.580Z,1.60
2022-08-23T03:20:22.910Z,1.77
2022-08-23T03:22:54.594Z,1.97
2022-08-23T03:25:26.212Z,2.00
2022-08-23T03:28:12.672Z,1.70
2022-08-23T03:30:45.851Z,1.97
2022-08-23T03:33:14.673Z,2.00
2022-08-23T03:35:47.330Z,2.63
2022-08-23T03:38:16.852Z,2.03
2022-08-23T03:40:46.325Z,1.80
2022-08-23T03:43:15.888Z,2.13
2022-08-23T03:45:46.669Z,1.90
2022-08-23T03:48:16.238Z,1.90
2022-08-23T03:50:46.610Z,2.07
2022-08-23T03:53:15.182Z,2.00
2022-08-23T03:55:46.580Z,1.90
2022-08-23T03:58:21.691Z,1.80
2022-08-23T04:00:51.115Z,1.73
2022-08-23T04:03:20.752Z,2.20
2022-08-23T04:05:58.656Z,1.90
2022-08-23T04:08:33.169Z,2.03
2022-08-23T04:13:57.249Z,1.90
2022-08-23T04:16:26.882Z,1.97
2022-08-23T04:18:55.067Z,1.97
2022-08-23T04:21:26.066Z,1.87
2022-08-23T04:23:55.526Z,1.87
2022-08-23T04:26:28.349Z,2.03
2022-08-23T04:29:00.518Z,2.10
2022-08-23T04:31:29.169Z,2.40
2022-08-23T04:34:06.479Z,2.20
2022-08-23T04:36:41.935Z,2.40
2022-08-23T04:39:19.911Z,2.10
2022-08-23T04:42:07.106Z,2.50
2022-08-23T04:44:37.119Z,2.73
2022-08-23T04:47:07.157Z,1.80
2022-08-23T04:49:35.886Z,2.03
2022-08-23T04:52:05.434Z,2.10
2022-08-23T04:54:35.142Z,2.27
2022-08-23T04:57:27.228Z,2.40
2022-08-23T04:59:57.988Z,2.33
2022-08-23T05:02:27.667Z,2.67
2022-08-23T05:04:57.055Z,2.50
2022-08-23T05:07:41.676Z,3.80
2022-08-23T05:10:14.074Z,2.37
2022-08-23T05:12:49.244Z,2.50
2022-08-23T05:15:20.716Z,1.97
2022-08-23T05:17:55.261Z,2.27
2022-08-23T05:20:23.627Z,2.63
2022-08-23T05:22:51.709Z,2.30
2022-08-23T05:25:57.290Z,2.50
2022-08-23T05:28:35.467Z,1.97
2022-08-23T05:31:13.534Z,2.50
2022-08-23T05:33:48.879Z,2.80
2022-08-23T05:36:26.700Z,3.10
2022-08-23T05:38:56.359Z,2.37
2022-08-23T05:41:33.382Z,2.20
2022-08-23T05:44:11.529Z,2.57
2022-08-23T05:46:54.343Z,3.10
2022-08-23T05:49:32.612Z,2.80
2022-08-23T05:52:01.217Z,3.20
2022-08-23T05:54:34.853Z,2.90
2022-08-23T05:57:24.358Z,3.30
2022-08-23T05:59:53.933Z,3.10
2022-08-23T06:02:26.357Z,3.17
2022-08-23T06:05:04.397Z,3.80
2022-08-23T06:07:37.247Z,3.40
2022-08-23T06:10:16.015Z,3.23
2022-08-23T06:12:48.794Z,3.30
2022-08-23T06:15:18.692Z,3.57
2022-08-23T06:17:48.237Z,3.77
2022-08-23T06:20:18.008Z,3.40
2022-08-23T06:22:59.045Z,3.10
2022-08-23T06:25:27.380Z,3.43
2022-08-23T06:28:19.517Z,3.70
2022-08-23T06:30:56.106Z,3.53
2022-08-23T06:33:33.773Z,3.40
2022-08-23T06:36:08.913Z,4.07
2022-08-23T06:39:12.258Z,3.67
2022-08-23T06:42:02.095Z,3.57
2022-08-23T06:44:34.723Z,3.30
2022-08-23T06:47:31.367Z,3.57
2022-08-23T06:50:01.099Z,3.50
2022-08-23T06:52:50.236Z,3.30
2022-08-23T06:55:31.431Z,3.00
2022-08-23T06:58:15.776Z,2.93
2022-08-23T07:01:44.496Z,3.67
2022-08-23T07:04:34.789Z,2.97
2022-08-23T07:07:39.656Z,3.93
2022-08-23T07:10:34.440Z,3.07
2022-08-23T07:13:06.923Z,2.93
2022-08-23T07:15:38.750Z,2.47
2022-08-23T07:18:13.309Z,2.57
2022-08-23T07:20:42.146Z,3.17
2022-08-23T07:23:12.520Z,2.57
2022-08-23T07:25:41.611Z,2.63
2022-08-23T07:28:13.323Z,2.43
2022-08-23T07:30:45.588Z,2.37
2022-08-23T07:33:15.341Z,2.20
2022-08-23T07:36:12.435Z,2.50
2022-08-23T07:38:42.769Z,2.23
2022-08-23T07:41:19.679Z,1.53
2022-08-23T07:43:51.169Z,2.00
2022-08-23T07:46:21.805Z,2.20
2022-08-23T07:48:54.811Z,1.60
2022-08-23T07:51:49.855Z,1.80
2022-08-23T07:54:22.984Z,1.87
2022-08-23T07:57:01.396Z,1.70
2022-08-23T07:59:49.817Z,1.50
2022-08-23T08:02:41.577Z,1.90
2022-08-23T08:05:21.772Z,1.50
2022-08-23T08:07:51.198Z,1.53
2022-08-23T08:10:21.612Z,1.30
2022-08-23T08:12:51.622Z,1.43
2022-08-23T08:15:23.279Z,1.23
2022-08-23T08:17:58.472Z,1.10
2022-08-23T08:20:50.275Z,1.37
2022-08-23T08:23:50.001Z,1.03
2022-08-23T08:26:49.837Z,0.80
2022-08-23T08:29:20.541Z,1.43
2022-08-23T08:31:54.132Z,0.97
2022-08-23T08:34:24.100Z,0.93
2022-08-23T08:36:54.842Z,1.40
2022-08-23T08:39:28.092Z,1.40
2022-08-23T08:42:15.967Z,1.20
2022-08-23T08:44:54.378Z,1.13
2022-08-23T08:47:36.384Z,1.03
2022-08-23T08:50:11.812Z,1.20
2022-08-23T08:52:44.602Z,1.23
2022-08-23T08:55:27.300Z,1.23
2022-08-23T08:58:02.224Z,1.30
2022-08-23T09:00:36.495Z,1.23
2022-08-23T09:03:17.605Z,1.70
2022-08-23T09:05:56.400Z,1.37
2022-08-23T09:08:39.775Z,1.47
2022-08-23T09:11:15.175Z,1.60
2022-08-23T09:14:07.018Z,1.70
2022-08-23T09:16:44.991Z,2.17
2022-08-23T09:19:15.440Z,1.90
2022-08-23T09:21:48.530Z,2.90
2022-08-23T09:24:19.901Z,7.60
2022-08-23T09:27:01.092Z,34.53
2022-08-23T09:29:33.344Z,13.43
2022-08-23T09:32:03.870Z,9.83
2022-08-23T09:34:43.623Z,4.20
2022-08-23T09:37:19.974Z,3.17
2022-08-23T09:39:53.918Z,2.83
2022-08-23T09:42:32.992Z,2.73
2022-08-23T09:45:06.562Z,3.17
2022-08-23T09:47:44.827Z,3.17
2022-08-23T09:50:26.497Z,2.97
2022-08-23T09:53:00.261Z,2.80
2022-08-23T09:55:32.794Z,3.27
2022-08-23T09:58:01.605Z,3.00
2022-08-23T10:00:37.211Z,2.60
2022-08-23T10:03:27.817Z,3.37
2022-08-23T10:06:31.124Z,4.37
2022-08-23T10:09:05.987Z,3.60
2022-08-23T10:11:41.222Z,4.00
2022-08-23T10:14:12.794Z,3.53
2022-08-23T10:17:07.860Z,3.57
2022-08-23T10:19:43.170Z,3.77
2022-08-23T10:22:19.087Z,3.63
2022-08-23T10:25:23.460Z,4.63
2022-08-23T10:28:14.719Z,3.70
2022-08-23T10:30:52.924Z,5.47
2022-08-23T10:33:31.662Z,3.47
2022-08-23T10:36:13.096Z,3.00
2022-08-23T10:38:46.261Z,2.77
2022-08-23T10:41:44.019Z,3.00
2022-08-23T10:44:35.302Z,3.30
2022-08-23T10:47:27.083Z,2.80
2022-08-23T10:49:59.950Z,2.47
2022-08-23T10:52:33.707Z,2.40
2022-08-23T10:55:18.807Z,2.67
2022-08-23T10:57:49.601Z,2.90
2022-08-23T11:00:21.012Z,2.90
2022-08-23T11:02:55.718Z,2.93
2022-08-23T11:05:35.456Z,2.67
2022-08-23T11:08:33.153Z,2.73
2022-08-23T11:11:35.064Z,3.57
2022-08-23T11:14:04.389Z,3.17
2022-08-23T11:16:33.656Z,2.50
2022-08-23T11:19:02.066Z,2.80
2022-08-23T11:21:49.661Z,2.40
2022-08-23T11:24:52.832Z,2.53
2022-08-23T11:27:36.083Z,2.33
2022-08-23T11:30:45.735Z,2.67
2022-08-23T11:33:22.223Z,2.43
2022-08-23T11:35:57.079Z,2.27
2022-08-23T11:39:02.782Z,2.40
2022-08-23T11:41:37.796Z,2.47
2022-08-23T11:44:29.038Z,2.30
2022-08-23T11:47:03.582Z,2.43
2022-08-23T11:50:01.133Z,3.07
2022-08-23T11:53:10.661Z,2.10
2022-08-23T11:56:04.813Z,2.43
2022-08-23T11:58:53.791Z,2.10
2022-08-23T12:01:34.655Z,1.97
2022-08-23T12:04:10.773Z,2.13
2022-08-23T12:06:50.513Z,2.80
2022-08-23T12:10:04.669Z,2.33
2022-08-23T12:12:39.391Z,2.13
2022-08-23T12:15:13.817Z,2.17
2022-08-23T12:18:09.914Z,2.40
2022-08-23T12:20:39.043Z,2.00
2022-08-23T12:23:14.944Z,2.33
2022-08-23T12:25:43.899Z,2.20
2022-08-23T12:28:32.406Z,1.87
2022-08-23T12:31:13.463Z,1.50
2022-08-23T12:33:52.393Z,2.30
2022-08-23T12:36:26.983Z,1.57
2022-08-23T12:39:01.603Z,2.20
2022-08-23T12:41:32.104Z,1.87
2022-08-23T12:44:06.168Z,1.70
2022-08-23T12:46:38.961Z,1.63
2022-08-23T12:49:12.589Z,1.80
2022-08-23T12:51:50.204Z,1.97
2022-08-23T12:54:22.563Z,1.90
2022-08-23T12:56:53.074Z,1.67
2022-08-23T12:59:36.676Z,2.07
2022-08-23T13:02:10.453Z,1.80
2022-08-23T13:04:40.705Z,2.07
2022-08-23T13:07:11.874Z,1.97
2022-08-23T13:09:42.576Z,1.80
2022-08-23T13:12:22.774Z,1.70
2022-08-23T13:14:54.382Z,2.10
2022-08-23T13:17:39.738Z,1.77
2022-08-23T13:20:18.723Z,1.50
2022-08-23T13:23:02.796Z,1.83
2022-08-23T13:25:36.441Z,1.40
2022-08-23T13:28:10.088Z,1.50
2022-08-23T13:30:49.536Z,1.77
2022-08-23T13:33:29.632Z,1.80
2022-08-23T13:36:17.834Z,1.57
2022-08-23T13:38:57.478Z,1.33
2022-08-23T13:41:38.439Z,1.50
2022-08-23T13:44:23.628Z,1.63
2022-08-23T13:46:57.711Z,1.90
2022-08-23T13:49:33.356Z,2.70
2022-08-23T13:52:41.596Z,1.77
2022-08-23T13:55:04.989Z,1.90
2022-08-23T13:57:37.224Z,2.20
2022-08-23T14:00:19.221Z,1.90
2022-08-23T14:02:52.854Z,2.40
2022-08-23T14:05:25.864Z,2.00
2022-08-23T14:08:00.864Z,2.40
2022-08-23T14:10:50.839Z,2.13
2022-08-23T14:13:55.517Z,2.00
2022-08-23T14:16:33.203Z,1.37
2022-08-23T14:20:31.457Z,1.90
2022-08-23T14:21:55.225Z,1.70
2022-08-23T14:24:23.935Z,1.87
2022-08-23T14:26:52.786Z,2.10
2022-08-23T14:29:30.285Z,2.23
2022-08-23T14:32:14.192Z,1.93
2022-08-23T14:34:46.613Z,1.90
2022-08-23T14:40:23.054Z,2.20
2022-08-23T14:43:03.351Z,2.30
2022-08-23T14:45:36.400Z,2.30
2022-08-23T14:48:22.051Z,2.00
2022-08-23T14:51:14.166Z,2.10
2022-08-23T14:53:59.871Z,2.20
2022-08-23T14:56:35.860Z,2.10
2022-08-23T14:59:05.220Z,1.70
2022-08-23T15:01:33.836Z,1.77
2022-08-23T15:04:05.715Z,2.10
2022-08-23T15:06:35.168Z,1.70
2022-08-23T15:09:05.253Z,2.40
2022-08-23T15:14:24.815Z,1.97
2022-08-23T15:16:57.104Z,2.60
2022-08-23T15:19:25.304Z,1.83
2022-08-23T15:21:54.084Z,2.70
2022-08-23T15:24:24.776Z,2.07
2022-08-23T15:26:59.164Z,2.30
2022-08-23T15:29:27.848Z,1.80
2022-08-23T15:31:56.764Z,1.77
2022-08-23T15:34:29.205Z,1.83
2022-08-23T15:36:57.473Z,2.30
2022-08-23T15:39:26.963Z,2.27
2022-08-23T15:41:55.771Z,1.80
2022-08-23T15:44:23.896Z,2.10
2022-08-23T15:46:51.990Z,2.37
2022-08-23T15:49:20.808Z,2.43
2022-08-23T15:51:48.966Z,2.43
2022-08-23T15:54:19.714Z,2.00
2022-08-23T15:56:55.300Z,2.20
2022-08-23T15:59:24.071Z,2.17
2022-08-23T16:01:53.942Z,2.00
2022-08-23T16:04:22.757Z,1.70
2022-08-23T16:06:54.752Z,2.13
2022-08-23T16:09:25.173Z,2.30
2022-08-23T16:12:00.451Z,1.93
2022-08-23T16:14:31.191Z,1.97
2022-08-23T16:17:00.062Z,2.53
2022-08-23T16:19:28.805Z,1.80
2022-08-23T16:21:57.482Z,2.07
2022-08-23T16:24:30.497Z,2.10
2022-08-23T16:27:06.751Z,1.90
2022-08-23T16:29:39.228Z,2.30
2022-08-23T16:32:17.732Z,2.03
2022-08-23T16:34:47.248Z,2.00
2022-08-23T16:37:15.568Z,2.13
2022-08-23T16:39:45.140Z,2.00
2022-08-23T16:42:18.188Z,2.53
2022-08-23T16:44:48.984Z,2.17
2022-08-23T16:47:19.216Z,1.80
2022-08-23T16:49:48.257Z,2.10
2022-08-23T16:52:18.508Z,2.10
2022-08-23T16:54:53.118Z,2.13
2022-08-23T16:57:25.946Z,2.17
2022-08-23T16:59:56.237Z,2.30
2022-08-23T17:02:31.539Z,2.37
2022-08-23T17:05:02.760Z,2.30
2022-08-23T17:07:31.448Z,2.10
2022-08-23T17:10:02.050Z,2.63
2022-08-23T17:12:33.391Z,2.90
2022-08-23T17:15:02.014Z,2.70
2022-08-23T17:17:33.581Z,2.93
2022-08-23T17:20:05.082Z,2.47
2022-08-23T17:22:37.630Z,2.70
2022-08-23T17:25:07.026Z,3.53
2022-08-23T17:27:45.935Z,2.30
2022-08-23T17:30:17.022Z,2.77
2022-08-23T17:32:48.280Z,3.00
2022-08-23T17:35:18.793Z,2.80
2022-08-23T17:37:49.494Z,2.33
2022-08-23T17:40:21.291Z,2.97
2022-08-23T17:43:00.466Z,3.23
2022-08-23T17:45:31.713Z,2.83
2022-08-23T17:48:01.261Z,3.37
2022-08-23T17:50:29.912Z,2.70
2022-08-23T17:52:59.480Z,3.13
2022-08-23T17:55:35.535Z,3.00
2022-08-23T17:58:07.477Z,3.23
2022-08-23T18:00:39.613Z,3.27
2022-08-23T18:03:08.284Z,3.70
2022-08-23T18:05:40.084Z,3.10
2022-08-23T18:08:09.329Z,3.07
2022-08-23T18:10:40.648Z,2.97
2022-08-23T18:13:14.920Z,3.40
2022-08-23T18:15:43.223Z,3.27
2022-08-23T18:18:15.174Z,3.17
2022-08-23T18:20:44.447Z,3.10
2022-08-23T18:23:17.948Z,3.40
2022-08-23T18:25:48.157Z,3.40
2022-08-23T18:28:18.604Z,3.10
2022-08-23T18:31:14.867Z,3.53
2022-08-23T18:33:47.006Z,3.10
2022-08-23T18:36:16.430Z,3.23
2022-08-23T18:38:46.886Z,2.63
2022-08-23T18:41:15.992Z,3.20
2022-08-23T18:43:48.706Z,3.13
2022-08-23T18:46:20.734Z,2.80
2022-08-23T18:48:53.702Z,3.03
2022-08-23T18:51:23.725Z,3.20
2022-08-23T18:53:52.216Z,2.50
2022-08-23T18:56:20.733Z,2.43
2022-08-23T18:58:52.336Z,2.80
2022-08-23T19:01:23.692Z,3.00
2022-08-23T19:03:55.739Z,2.93
2022-08-23T19:06:27.269Z,3.30
2022-08-23T19:08:56.919Z,3.60
2022-08-23T19:11:26.339Z,4.20
2022-08-23T19:13:57.649Z,3.87
2022-08-23T19:16:27.047Z,3.00
2022-08-23T19:18:55.946Z,2.67
2022-08-23T19:21:27.011Z,3.27
2022-08-23T19:23:56.885Z,3.40
2022-08-23T19:26:31.924Z,2.73
2022-08-23T19:29:09.839Z,3.00
2022-08-23T19:31:43.176Z,3.20
2022-08-23T19:34:25.866Z,3.17
2022-08-23T19:37:01.149Z,3.30
2022-08-23T19:39:32.442Z,2.90
2022-08-23T19:42:01.531Z,3.10
2022-08-23T19:44:37.340Z,3.60
2022-08-23T19:47:07.665Z,3.57
2022-08-23T19:49:47.220Z,3.67
2022-08-23T19:52:19.082Z,3.50
2022-08-23T19:54:52.088Z,3.10
2022-08-23T19:57:21.921Z,3.80
2022-08-23T19:59:53.449Z,3.33
2022-08-23T20:02:28.242Z,3.20
2022-08-23T20:05:03.744Z,4.17
2022-08-23T20:07:35.937Z,3.70
2022-08-23T20:10:06.250Z,4.13
2022-08-23T20:12:38.435Z,3.80
2022-08-23T20:15:18.694Z,4.03
2022-08-23T20:17:54.904Z,3.53
2022-08-23T20:20:39.861Z,3.67
2022-08-23T20:23:43.992Z,3.80
2022-08-23T20:26:19.398Z,3.80
2022-08-23T20:28:55.209Z,4.20
2022-08-23T20:31:42.413Z,4.10
2022-08-23T20:34:14.100Z,4.00
2022-08-23T20:36:45.277Z,4.70
2022-08-23T20:39:20.393Z,4.40
2022-08-23T20:42:05.147Z,4.60
2022-08-23T20:44:45.548Z,4.40
2022-08-23T20:47:18.089Z,4.73
2022-08-23T20:50:02.429Z,5.20
2022-08-23T20:52:37.640Z,3.90
2022-08-23T20:55:09.625Z,4.10
2022-08-23T20:57:39.320Z,5.30
2022-08-23T21:00:10.205Z,4.67
2022-08-23T21:02:43.004Z,4.40
2022-08-23T21:05:13.673Z,4.43
2022-08-23T21:07:43.252Z,5.27
2022-08-23T21:10:14.395Z,4.90
2022-08-23T21:12:44.586Z,4.70
2022-08-23T21:15:21.843Z,4.50
2022-08-23T21:17:51.477Z,5.57
2022-08-23T21:20:20.592Z,4.70
2022-08-23T21:22:50.722Z,5.50
2022-08-23T21:25:21.588Z,5.27
2022-08-23T21:27:51.448Z,5.40
2022-08-23T21:30:20.444Z,5.87
2022-08-23T21:32:51.856Z,5.07
2022-08-23T21:35:21.351Z,5.87
2022-08-23T21:37:50.668Z,6.30
2022-08-23T21:40:19.434Z,5.43
2022-08-23T21:42:52.064Z,5.73
2022-08-23T21:45:20.170Z,6.20
2022-08-23T21:47:49.495Z,6.40
2022-08-23T21:50:19.817Z,6.20
2022-08-23T21:52:54.651Z,5.53
2022-08-23T21:55:36.006Z,5.57
2022-08-23T21:58:05.697Z,5.57
2022-08-23T22:00:34.648Z,4.93
2022-08-23T22:03:03.173Z,5.43
2022-08-23T22:05:33.230Z,5.27
2022-08-23T22:08:02.312Z,6.40
2022-08-23T22:10:31.435Z,5.87
2022-08-23T22:12:59.888Z,5.50
2022-08-23T22:15:27.976Z,5.43
2022-08-23T22:17:57.561Z,6.43
2022-08-23T22:20:26.372Z,5.67
2022-08-23T22:22:56.411Z,5.90
2022-08-23T22:25:25.427Z,6.40
2022-08-23T22:27:53.625Z,6.43
2022-08-23T22:30:22.508Z,6.40
2022-08-23T22:32:51.844Z,7.03
2022-08-23T22:35:20.423Z,8.10
2022-08-23T22:38:10.156Z,6.60
2022-08-23T22:40:39.487Z,7.43
2022-08-23T22:43:07.550Z,7.80
2022-08-23T22:45:35.670Z,8.37
2022-08-23T22:48:05.344Z,7.23
2022-08-23T22:50:34.386Z,7.40
2022-08-23T22:53:03.739Z,8.03
2022-08-23T22:55:32.281Z,8.00
2022-08-23T22:58:01.967Z,7.90
2022-08-23T23:00:31.120Z,7.60
2022-08-23T23:03:00.563Z,7.30
2022-08-23T23:05:28.754Z,7.50
2022-08-23T23:08:14.683Z,8.17
2022-08-23T23:10:42.816Z,8.30
2022-08-23T23:13:12.766Z,7.60
2022-08-23T23:15:42.229Z,7.57
2022-08-23T23:18:10.327Z,8.27
2022-08-23T23:20:39.413Z,8.07
2022-08-23T23:23:08.956Z,7.57
2022-08-23T23:25:38.876Z,7.40
2022-08-23T23:28:07.354Z,8.20
2022-08-23T23:30:40.365Z,7.17
2022-08-23T23:33:08.512Z,7.20
2022-08-23T23:35:38.513Z,7.67
2022-08-23T23:38:07.370Z,8.17
2022-08-23T23:40:37.055Z,8.00
2022-08-23T23:43:05.752Z,6.70
2022-08-23T23:45:39.757Z,6.77
2022-08-23T23:48:09.163Z,6.53
2022-08-23T23:50:37.659Z,6.97
2022-08-23T23:53:09.693Z,7.37
2022-08-23T23:55:38.986Z,6.60
2022-08-23T23:58:07.223Z,6.53
